Camp Stafford, Louisiana
Current Conditions -  °F | °C
As of 11:53 PM on Wednesday 17 Dec 2014 (Local Time) from KAEX Reporting Station
Overcast Overcast  
Wind Chill: 50°   Ceiling: 9500
Heat Index: 50°   Visibility: 10mi
Dew Point: 42°   Wind: 3mph
Humidity: 74%   Direction: 60°ENE
Pressure: 30.17"   Gusts: NA
Location:  31.2655°N, 92.4705°W
Report Text: KAEX 180553Z 06003KT 10SM OVC095 10/06 A3017 RMK AO2 SLP220 T01000056 10106 20083 401390006 51007
Loading
Personal Weather Stations






























Interactive Weather Map New forecast layout! Learn more

10-Day Weather Forecast

Advertisements
Track Severe Weather on mobile